Detalii statie VESTAGRAR MARGHITA [00001D0E]

Toti senzorii

Date Temperatura solului [C]Precipitatii [mm]Voltaj baterie [mV]Leaf Wetness [Min]HC Air temperature [C]HC Relative humidity [%]Punctul de roua [C]
medieminmaxsumaultimatimpmedieminmaxmediemediemin
2018-02-23 13:00:00 0 7128 3.17 2.93 3.38 0 0 0
2018-02-23 14:00:00 0.2 7186 3.5 3.22 3.69 0 0 0
2018-02-23 15:00:00 0 7186 3.56 3.46 3.72 0 0 0
2018-02-23 16:00:00 0 7176 3.43 3.32 3.59 0 0 0
2018-02-23 17:00:00 0 7098 2.95 2.46 3.39 0 0 0
2018-02-23 18:00:00 0.2 6992 1.62 1.14 2.22 0 0 0
2018-02-23 19:00:00 0.2 6962 0.76 0.6 1.05 0 0 0
2018-02-23 20:00:00 0 6932 0.29 0.07 0.52 0 0 0
2018-02-23 21:00:00 0 6904 -0.26 -0.72 0.03 0 0 0
2018-02-23 22:00:00 0 6894 -0.96 -1.18 -0.77 0 0 0
2018-02-23 23:00:00 0 6884 -1.58 -1.96 -1.2 0 0 0
2018-02-24 00:00:00 0 6874 -1.98 -2.05 -1.9 0 0 0
2018-02-24 01:00:00 0 6864 -2.23 -2.33 -2.13 0 0 0
2018-02-24 02:00:00 0 6864 -2.43 -2.56 -2.33 0 0 0
2018-02-24 03:00:00 0 6874 -2.73 -2.92 -2.56 0 0 0
2018-02-24 04:00:00 0 6854 -3.22 -3.45 -2.95 0 0 0
2018-02-24 05:00:00 0 6864 -4.13 -5.14 -3.52 0 0 0
2018-02-24 06:00:00 0 6844 -5.62 -6.12 -5.14 0 0 0
2018-02-24 07:00:00 0 6834 -6.56 -7.34 -6.15 0 0 0
2018-02-24 08:00:00 0 6864 -7.05 -7.55 -6.57 0 0 0
2018-02-24 09:00:00 0 7176 -5.41 -6.4 -3.97 0 0 0
2018-02-24 10:00:00 0 7342 -2.93 -3.69 -2.14 0 0 0
2018-02-24 11:00:00 0 7324 -1.49 -1.95 -0.87 0 0 0
2018-02-24 12:00:00 0 7332 -0.66 -1.09 -0.06 0 0 0
2018-02-24 13:00:00 0 7332 0.06 -0.19 0.39 0 0 0
2018-02-24 14:00:00 0 7324 0.7 0.04 1.65 0 0 0
2018-02-24 15:00:00 0 7324 1 0.44 1.54 0 0 0
2018-02-24 16:00:00 0 7324 0.92 0.45 1.44 0 0 0
2018-02-24 17:00:00 0 7314 -0.16 -0.45 0.42 0 0 0
2018-02-24 18:00:00 0 7158 -1.62 -2.29 -0.85 0 0 0
2018-02-24 19:00:00 0 7070 -2.63 -2.82 -2.33 0 0 0
2018-02-24 20:00:00 0 7030 -3.46 -4.35 -2.87 0 0 0
2018-02-24 21:00:00 0 7000 -4.79 -5.11 -4.34 0 0 0
2018-02-24 22:00:00 0 6972 -5.44 -5.83 -4.97 0 0 0
2018-02-24 23:00:00 0 6972 -6.19 -6.72 -5.68 0 0 0
2018-02-25 00:00:00 0 6942 -6.89 -7.22 -6.75 0 0 0
2018-02-25 01:00:00 0 6952 -7.17 -7.42 -6.84 0 0 0
2018-02-25 02:00:00 0 6942 -7.2 -7.31 -7.02 0 0 0
2018-02-25 03:00:00 0 6942 -7.19 -7.47 -6.97 0 0 0
2018-02-25 04:00:00 0 6932 -8.03 -8.48 -7.52 0 0 0
2018-02-25 05:00:00 0 6922 -8.61 -8.78 -8.51 0 0 0
2018-02-25 06:00:00 0 6922 -8.53 -8.72 -8.41 0 0 0
2018-02-25 07:00:00 0 6914 -9.08 -9.37 -8.81 0 0 0
2018-02-25 08:00:00 0 6874 -9.38 -9.69 -9.15 0 0 0
2018-02-25 09:00:00 0 7040 -8.82 -9.27 -8.26 0 0 0
2018-02-25 10:00:00 0 7324 -6.58 -7.89 -5.63 0 0 0
2018-02-25 11:00:00 0 7342 -5.31 -6.03 -4.54 0 0 0
2018-02-25 12:00:00 0 7342 -4.67 -5.74 -3.8 0 0 0